Time;durP1;ratioP1;P1;durP2;ratioP2;P2;SDS_P1;SDS_P2;PMS_P1;PMS_P2;Temp;Humidity;BMP_temperature;BMP_pressure;BME280_temperature;BME280_humidity;BME280_pressure;Samples;Min_cycle;Max_cycle;Signal;HPM_P1;HPM_P2
2021/06/08 00:02:24;;;;;;;3.15;2.80;;;24.00;95.00;;;;;;5114695;28;20028;-61
2021/06/08 00:04:49;;;;;;;4.72;2.63;;;23.90;95.00;;;;;;5113592;28;20045;-62
2021/06/08 00:07:15;;;;;;;5.95;2.92;;;23.90;95.00;;;;;;5113821;28;20020;-61
2021/06/08 00:09:41;;;;;;;3.38;3.03;;;23.90;95.00;;;;;;5113730;28;20115;-61
2021/06/08 00:12:08;;;;;;;4.93;2.90;;;24.00;95.10;;;;;;5113752;28;20024;-61
2021/06/08 00:14:33;;;;;;;4.18;2.92;;;24.00;95.10;;;;;;5113892;28;20028;-60
2021/06/08 00:16:59;;;;;;;2.60;2.40;;;23.90;95.10;;;;;;5113964;28;20072;-60
2021/06/08 00:19:25;;;;;;;3.33;2.90;;;23.90;95.20;;;;;;5113774;28;20032;-61
2021/06/08 00:21:50;;;;;;;5.53;2.95;;;24.00;95.20;;;;;;5112764;28;20023;-61
2021/06/08 00:24:16;;;;;;;3.78;2.95;;;23.90;95.30;;;;;;5113968;28;20031;-61
2021/06/08 00:26:41;;;;;;;4.75;3.03;;;23.90;95.40;;;;;;5113090;28;20103;-60
2021/06/08 00:29:07;;;;;;;5.82;3.10;;;23.90;95.40;;;;;;5113441;28;20044;-61
2021/06/08 00:31:33;;;;;;;5.22;3.10;;;23.90;95.50;;;;;;5113381;28;20023;-61
2021/06/08 00:33:58;;;;;;;5.68;3.45;;;23.90;95.60;;;;;;5112133;28;20077;-60
2021/06/08 00:36:24;;;;;;;3.22;2.92;;;23.80;95.70;;;;;;5114248;28;20442;-63
2021/06/08 00:38:49;;;;;;;5.18;3.47;;;23.90;95.70;;;;;;5112992;28;20379;-62
2021/06/08 00:41:15;;;;;;;6.22;3.25;;;23.90;95.90;;;;;;5113601;28;20028;-61
2021/06/08 00:43:41;;;;;;;5.70;3.17;;;23.90;96.00;;;;;;5112861;28;20046;-61
2021/06/08 00:46:07;;;;;;;4.75;3.28;;;23.80;96.10;;;;;;5113506;28;20028;-61
2021/06/08 00:48:32;;;;;;;4.13;3.05;;;23.80;96.00;;;;;;5112923;28;20019;-62
2021/06/08 00:50:58;;;;;;;4.93;2.92;;;23.80;96.10;;;;;;5113332;28;20055;-61
2021/06/08 00:53:24;;;;;;;6.03;2.88;;;23.80;96.30;;;;;;5112966;28;20034;-62
2021/06/08 00:55:51;;;;;;;6.18;3.22;;;23.80;96.30;;;;;;5112828;28;20027;-63
2021/06/08 00:58:17;;;;;;;4.63;2.75;;;23.80;96.40;;;;;;5113141;28;20164;-62
2021/06/08 01:00:43;;;;;;;5.43;3.20;;;23.80;96.50;;;;;;5112785;28;20072;-62
2021/06/08 01:03:08;;;;;;;4.00;2.97;;;23.80;96.50;;;;;;5112926;28;20015;-61
2021/06/08 01:05:34;;;;;;;5.68;3.20;;;23.70;96.40;;;;;;5112618;28;20035;-62
2021/06/08 01:08:00;;;;;;;5.10;3.22;;;23.80;96.40;;;;;;5113039;28;20508;-61
2021/06/08 01:10:25;;;;;;;3.97;3.20;;;23.70;96.40;;;;;;5113007;28;20043;-64
2021/06/08 01:12:51;;;;;;;5.22;3.03;;;23.70;96.30;;;;;;5112175;28;20023;-63
2021/06/08 01:15:17;;;;;;;3.50;3.10;;;23.70;96.30;;;;;;5112390;28;20037;-67
2021/06/08 01:17:42;;;;;;;8.20;3.22;;;23.70;96.30;;;;;;5112603;28;20035;-68
2021/06/08 01:20:09;;;;;;;4.80;2.97;;;23.70;96.30;;;;;;5113151;28;20023;-66
2021/06/08 01:22:36;;;;;;;7.55;3.17;;;23.70;96.30;;;;;;5112670;28;20031;-69
2021/06/08 01:25:04;;;;;;;7.13;3.33;;;23.60;96.40;;;;;;5111494;28;20028;-69
2021/06/08 01:27:31;;;;;;;5.70;2.90;;;23.60;96.30;;;;;;5112552;28;20034;-70
2021/06/08 01:29:58;;;;;;;3.80;3.00;;;23.60;96.40;;;;;;5112504;28;20074;-66
2021/06/08 01:32:27;;;;;;;4.60;2.90;;;23.70;96.40;;;;;;5112766;28;20429;-71
2021/06/08 01:34:55;;;;;;;5.43;2.95;;;23.60;96.40;;;;;;5112575;28;20074;-69
2021/06/08 01:37:22;;;;;;;5.70;2.95;;;23.60;96.40;;;;;;5111657;28;20498;-65
2021/06/08 01:39:48;;;;;;;7.35;3.00;;;23.60;96.50;;;;;;5112327;28;20448;-68
2021/06/08 01:42:16;;;;;;;8.15;3.40;;;23.60;96.50;;;;;;5112470;28;20581;-62
2021/06/08 01:44:43;;;;;;;7.72;2.88;;;23.50;96.50;;;;;;5112233;28;20042;-62
2021/06/08 01:47:09;;;;;;;6.50;3.17;;;23.60;96.60;;;;;;5112281;28;20016;-62
2021/06/08 01:49:37;;;;;;;5.60;2.90;;;23.50;96.80;;;;;;5111682;28;20478;-61
2021/06/08 01:52:12;;;;;;;4.07;2.90;;;23.50;96.50;;;;;;5112336;28;20119;-62
2021/06/08 01:54:43;;;;;;;4.03;3.10;;;23.60;96.70;;;;;;5111564;28;20031;-62
2021/06/08 01:57:31;;;;;;;6.82;3.30;;;23.50;96.60;;;;;;5111769;28;20092;-61
2021/06/08 02:00:14;;;;;;;3.80;3.20;;;23.50;96.70;;;;;;5112462;28;20019;-62
2021/06/08 02:03:04;;;;;;;5.70;3.20;;;23.50;96.80;;;;;;5111408;28;20028;-62
2021/06/08 02:06:03;;;;;;;3.47;3.17;;;23.50;96.90;;;;;;5111270;28;20046;-62
2021/06/08 02:08:58;;;;;;;5.28;3.10;;;23.50;96.90;;;;;;5111176;28;20030;-62
2021/06/08 02:11:30;;;;;;;4.20;2.85;;;23.40;97.10;;;;;;5112248;28;20110;-61
2021/06/08 02:14:12;;;;;;;3.58;3.28;;;23.40;97.10;;;;;;5111554;28;20031;-61
2021/06/08 02:16:52;;;;;;;4.03;2.78;;;23.40;97.20;;;;;;5110447;28;20027;-61
2021/06/08 02:19:21;;;;;;;4.15;3.08;;;23.40;97.30;;;;;;5111539;28;20032;-62
2021/06/08 02:21:50;;;;;;;3.85;3.20;;;23.40;97.40;;;;;;5112082;28;20504;-61
2021/06/08 02:24:19;;;;;;;3.65;2.80;;;23.40;97.50;;;;;;5111506;28;20115;-64
2021/06/08 02:26:46;;;;;;;3.45;3.10;;;23.40;97.50;;;;;;5111450;28;20467;-62
2021/06/08 02:29:13;;;;;;;3.50;3.20;;;23.30;97.50;;;;;;5111446;28;20046;-63
2021/06/08 02:31:43;;;;;;;4.32;3.13;;;23.30;97.60;;;;;;5111432;28;20042;-63
2021/06/08 02:34:11;;;;;;;4.05;3.40;;;23.40;97.70;;;;;;5110217;28;20077;-63
2021/06/08 02:36:38;;;;;;;4.90;3.05;;;23.30;97.70;;;;;;5114197;28;20084;-63
2021/06/08 02:39:05;;;;;;;5.28;3.10;;;23.30;97.70;;;;;;5115183;28;20066;-63
2021/06/08 02:41:32;;;;;;;3.28;2.90;;;23.30;97.70;;;;;;5114838;28;20084;-65
2021/06/08 02:43:57;;;;;;;6.10;3.22;;;23.30;97.70;;;;;;5116170;28;20375;-62
2021/06/08 02:46:24;;;;;;;5.88;3.25;;;23.30;97.80;;;;;;5116163;28;20167;-64
2021/06/08 02:48:50;;;;;;;4.35;2.95;;;23.30;97.70;;;;;;5114977;28;20059;-63
2021/06/08 02:51:16;;;;;;;4.53;2.70;;;23.30;97.90;;;;;;5115891;28;20502;-62
2021/06/08 02:53:42;;;;;;;4.60;3.00;;;23.30;97.90;;;;;;5115251;28;20023;-62
2021/06/08 02:56:09;;;;;;;4.82;3.22;;;23.30;97.90;;;;;;5115535;28;20027;-62
2021/06/08 02:58:36;;;;;;;3.55;3.05;;;23.30;97.90;;;;;;5115436;28;20020;-62
2021/06/08 03:01:05;;;;;;;3.55;3.10;;;23.20;97.80;;;;;;5115476;28;20028;-62
2021/06/08 03:03:35;;;;;;;5.63;3.13;;;23.20;97.90;;;;;;5114580;28;20468;-63
2021/06/08 03:06:08;;;;;;;5.18;3.00;;;23.20;97.80;;;;;;5115623;28;20039;-63
2021/06/08 03:08:42;;;;;;;3.45;3.15;;;23.20;97.80;;;;;;5114958;27;20390;-62
2021/06/08 03:11:11;;;;;;;5.43;3.20;;;23.20;97.80;;;;;;5115486;28;20035;-62
2021/06/08 03:13:37;;;;;;;3.78;3.17;;;23.20;97.80;;;;;;5115135;28;20072;-62
2021/06/08 03:16:06;;;;;;;3.50;3.08;;;23.20;97.90;;;;;;5115412;28;20098;-63
2021/06/08 03:18:32;;;;;;;5.80;3.20;;;23.20;97.80;;;;;;5114945;28;20447;-62
2021/06/08 03:21:02;;;;;;;3.70;3.15;;;23.20;97.90;;;;;;5115370;28;20024;-62
2021/06/08 03:23:33;;;;;;;6.85;3.30;;;23.20;97.90;;;;;;5114977;28;20031;-63
2021/06/08 03:26:01;;;;;;;3.67;3.35;;;23.10;97.90;;;;;;5114840;28;20428;-63
2021/06/08 03:28:29;;;;;;;3.42;3.10;;;23.10;98.20;;;;;;5114880;28;20015;-63
2021/06/08 03:30:55;;;;;;;4.07;3.05;;;23.10;97.90;;;;;;5115314;28;20110;-66
2021/06/08 03:33:21;;;;;;;4.05;3.22;;;23.10;98.00;;;;;;5114767;28;20486;-67
2021/06/08 03:35:49;;;;;;;4.53;3.05;;;23.10;97.90;;;;;;5114393;28;20039;-68
2021/06/08 03:38:18;;;;;;;4.50;3.25;;;23.10;98.00;;;;;;5114503;28;20023;-67
2021/06/08 03:40:44;;;;;;;6.22;3.45;;;23.10;97.90;;;;;;5114538;28;20456;-66
2021/06/08 03:43:10;;;;;;;4.78;3.25;;;23.10;97.90;;;;;;5114590;28;20031;-67
2021/06/08 03:45:36;;;;;;;3.67;3.33;;;23.10;97.80;;;;;;5114129;28;20024;-69
2021/06/08 03:48:02;;;;;;;4.43;3.10;;;23.10;98.10;;;;;;5112629;28;20032;-69
2021/06/08 03:50:29;;;;;;;5.35;3.15;;;23.00;97.60;;;;;;5114160;28;20031;-68
2021/06/08 03:52:55;;;;;;;6.88;3.33;;;23.10;97.80;;;;;;5114917;28;20024;-68
2021/06/08 03:55:23;;;;;;;5.50;3.30;;;23.10;97.80;;;;;;5114848;28;20028;-69
2021/06/08 03:57:52;;;;;;;9.38;3.40;;;23.10;97.70;;;;;;5114061;28;20046;-67
2021/06/08 04:00:20;;;;;;;5.30;3.05;;;23.10;97.70;;;;;;5113098;28;20475;-66
2021/06/08 04:02:46;;;;;;;5.05;3.13;;;23.10;97.60;;;;;;5104172;28;20452;-62
2021/06/08 04:05:14;;;;;;;6.25;3.45;;;23.10;97.50;;;;;;5114346;28;20027;-62
2021/06/08 04:07:41;;;;;;;5.45;3.15;;;23.10;97.60;;;;;;5113826;28;20478;-61
2021/06/08 04:10:08;;;;;;;3.80;3.10;;;23.10;97.50;;;;;;5113887;28;20035;-61
2021/06/08 04:12:35;;;;;;;5.20;3.15;;;23.10;97.50;;;;;;5114093;28;20031;-61
2021/06/08 04:15:04;;;;;;;4.80;3.10;;;23.10;97.30;;;;;;5114138;28;20369;-61
2021/06/08 04:17:31;;;;;;;5.60;3.25;;;23.10;97.20;;;;;;5112874;28;20024;-61
2021/06/08 04:19:58;;;;;;;7.70;2.90;;;23.20;97.20;;;;;;5113992;28;20079;-61
2021/06/08 04:22:31;;;;;;;6.35;3.30;;;23.20;97.10;;;;;;5113859;28;20027;-62
2021/06/08 04:24:57;;;;;;;5.68;3.03;;;23.30;97.10;;;;;;5114220;28;20092;-65
2021/06/08 04:27:24;;;;;;;7.78;3.00;;;23.30;97.00;;;;;;5112068;28;20479;-61
2021/06/08 04:29:50;;;;;;;5.38;2.97;;;23.30;97.20;;;;;;5112207;28;20123;-62
2021/06/08 04:32:17;;;;;;;7.40;3.10;;;23.30;96.80;;;;;;5113641;28;20114;-63
2021/06/08 04:34:48;;;;;;;7.70;3.50;;;23.30;96.80;;;;;;5113059;28;20483;-62
2021/06/08 04:37:13;;;;;;;4.22;3.00;;;23.40;96.70;;;;;;5113253;28;20506;-61
2021/06/08 04:39:39;;;;;;;5.00;2.83;;;23.50;96.60;;;;;;5113169;28;20059;-64
2021/06/08 04:42:06;;;;;;;5.50;3.58;;;23.60;96.50;;;;;;5113295;28;20051;-63
2021/06/08 04:44:33;;;;;;;5.35;3.22;;;23.60;96.30;;;;;;5113484;28;20498;-62
2021/06/08 04:46:59;;;;;;;8.35;3.20;;;23.60;96.30;;;;;;5113280;28;20023;-61
2021/06/08 04:49:24;;;;;;;4.60;3.10;;;23.70;96.20;;;;;;5113807;28;20432;-63
2021/06/08 04:51:50;;;;;;;5.85;3.30;;;23.70;96.10;;;;;;5112894;28;20016;-62
2021/06/08 04:54:25;;;;;;;7.80;3.33;;;23.70;96.00;;;;;;5113238;28;20471;-63
2021/06/08 04:56:51;;;;;;;7.63;2.95;;;23.70;95.90;;;;;;5112699;28;20027;-65
2021/06/08 04:59:21;;;;;;;5.30;3.30;;;23.70;95.80;;;;;;5110486;28;20032;-62
2021/06/08 05:01:49;;;;;;;4.45;2.72;;;23.80;95.80;;;;;;5112098;28;20027;-62
2021/06/08 05:04:20;;;;;;;6.50;3.20;;;23.80;95.70;;;;;;5112934;28;20156;-62
2021/06/08 05:06:53;;;;;;;4.07;3.10;;;23.80;95.70;;;;;;5112821;27;20019;-62
2021/06/08 05:09:22;;;;;;;6.05;3.10;;;23.90;95.70;;;;;;5113139;28;20040;-63
2021/06/08 05:11:53;;;;;;;5.90;3.67;;;23.90;95.60;;;;;;5112676;28;20035;-62
2021/06/08 05:14:20;;;;;;;4.50;3.20;;;23.90;95.60;;;;;;5113020;28;20024;-63
2021/06/08 05:16:48;;;;;;;5.22;3.50;;;23.90;95.60;;;;;;5112729;28;20024;-64
2021/06/08 05:19:15;;;;;;;4.47;2.97;;;23.90;95.50;;;;;;5112703;28;20036;-63
2021/06/08 05:21:42;;;;;;;6.75;3.33;;;24.00;95.60;;;;;;5112312;28;20027;-62
2021/06/08 05:24:10;;;;;;;11.50;3.03;;;24.00;95.00;;;;;;5112612;28;20073;-62
2021/06/08 05:26:42;;;;;;;12.88;2.95;;;24.10;95.20;;;;;;5111549;28;20049;-64
2021/06/08 05:29:08;;;;;;;8.60;2.97;;;24.10;95.20;;;;;;5112183;28;20467;-67
2021/06/08 05:31:34;;;;;;;12.75;3.15;;;24.10;95.20;;;;;;5111811;28;20142;-66
2021/06/08 05:34:00;;;;;;;14.52;3.40;;;24.10;95.20;;;;;;5111657;28;20117;-63
2021/06/08 05:36:37;;;;;;;6.05;3.20;;;24.20;95.20;;;;;;5112236;28;20031;-65
2021/06/08 05:39:07;;;;;;;5.93;2.85;;;24.20;95.30;;;;;;5111396;28;20030;-64
2021/06/08 05:41:33;;;;;;;13.45;3.22;;;24.20;95.30;;;;;;5111532;28;20055;-64
2021/06/08 05:43:58;;;;;;;8.82;3.70;;;24.20;95.30;;;;;;5097267;28;20059;-63
2021/06/08 05:46:33;;;;;;;18.25;3.58;;;24.20;95.40;;;;;;5112691;28;20379;-63
2021/06/08 05:49:07;;;;;;;7.68;2.83;;;24.30;95.40;;;;;;5111163;28;20502;-61
2021/06/08 05:51:35;;;;;;;6.72;3.00;;;24.20;93.70;;;;;;5111518;28;20023;-66
2021/06/08 05:54:06;;;;;;;9.45;6.10;;;24.10;93.30;;;;;;5110927;28;20031;-65
2021/06/08 05:56:34;;;;;;;11.15;8.23;;;24.00;93.30;;;;;;5111351;28;20418;-62
2021/06/08 05:59:00;;;;;;;12.13;10.32;;;24.00;93.30;;;;;;5112226;28;20061;-67
2021/06/08 06:01:27;;;;;;;18.30;13.57;;;23.90;93.10;;;;;;5111443;28;20019;-69
2021/06/08 06:03:54;;;;;;;21.48;15.70;;;23.40;93.40;;;;;;5112244;28;20034;-69
2021/06/08 06:06:19;;;;;;;19.90;17.88;;;23.10;93.80;;;;;;5111603;28;20114;-65
2021/06/08 06:08:46;;;;;;;21.92;19.30;;;22.70;94.40;;;;;;5111505;28;20107;-67
2021/06/08 06:11:14;;;;;;;22.27;19.88;;;22.40;94.50;;;;;;5111393;28;20035;-67
2021/06/08 06:13:57;;;;;;;22.95;20.63;;;22.50;94.40;;;;;;5111264;28;20023;-68
2021/06/08 06:16:25;;;;;;;32.95;29.52;;;22.50;94.30;;;;;;5109030;28;20483;-70
2021/06/08 06:18:51;;;;;;;32.88;29.42;;;22.20;94.40;;;;;;5109151;28;20380;-68
2021/06/08 06:21:32;;;;;;;34.67;30.10;;;20.50;97.00;;;;;;5068509;28;20052;-67
2021/06/08 06:24:00;;;;;;;33.08;29.70;;;21.00;97.00;;;;;;5091531;28;20024;-64
2021/06/08 06:26:27;;;;;;;33.50;30.00;;;21.00;96.60;;;;;;5094128;28;20042;-63
2021/06/08 06:28:54;;;;;;;32.33;28.85;;;20.70;97.00;;;;;;5112161;28;20056;-64
2021/06/08 06:31:20;;;;;;;33.13;29.58;;;21.20;97.30;;;;;;5111763;28;20032;-64
2021/06/08 06:33:51;;;;;;;34.53;30.73;;;21.00;97.10;;;;;;5111643;28;20020;-64
2021/06/08 06:36:17;;;;;;;36.33;32.53;;;21.40;96.70;;;;;;5111740;28;20038;-64
2021/06/08 06:38:47;;;;;;;35.42;31.75;;;20.30;97.90;;;;;;5111070;28;20016;-64
2021/06/08 06:41:14;;;;;;;34.05;30.63;;;19.90;99.30;;;;;;5111586;28;20062;-63
2021/06/08 06:43:50;;;;;;;33.67;30.15;;;20.60;98.50;;;;;;5110617;28;20035;-63
2021/06/08 06:46:17;;;;;;;35.08;31.38;;;20.90;98.30;;;;;;5111680;28;20076;-64
2021/06/08 06:48:44;;;;;;;33.05;29.42;;;21.40;97.70;;;;;;5111635;28;20036;-65
2021/06/08 06:51:10;;;;;;;33.67;30.08;;;21.70;96.90;;;;;;5110956;28;20467;-63
2021/06/08 06:53:36;;;;;;;31.35;27.63;;;21.80;96.90;;;;;;5091082;28;20028;-62
2021/06/08 06:56:02;;;;;;;26.58;23.75;;;22.20;96.50;;;;;;5090010;28;20081;-61
2021/06/08 06:58:28;;;;;;;27.08;23.65;;;22.60;95.90;;;;;;5091062;28;20020;-62
2021/06/08 07:00:54;;;;;;;24.98;22.20;;;22.90;95.40;;;;;;5103893;28;20042;-62
2021/06/08 07:03:26;;;;;;;24.48;21.90;;;23.10;94.90;;;;;;5110255;28;20024;-62
2021/06/08 07:05:52;;;;;;;22.88;20.48;;;23.20;94.80;;;;;;5111833;28;20449;-62
2021/06/08 07:08:23;;;;;;;24.88;20.02;;;23.30;94.70;;;;;;5111609;28;20020;-63
2021/06/08 07:10:51;;;;;;;21.98;19.67;;;23.40;94.60;;;;;;5110967;28;20070;-61
2021/06/08 07:13:17;;;;;;;23.33;20.85;;;23.40;94.40;;;;;;5110771;28;20035;-61
2021/06/08 07:15:46;;;;;;;22.33;19.23;;;23.50;94.30;;;;;;5109611;28;20047;-61
2021/06/08 07:18:13;;;;;;;27.52;21.65;;;23.50;94.20;;;;;;5110113;28;20036;-61
2021/06/08 07:20:39;;;;;;;21.67;19.35;;;23.60;94.20;;;;;;5111267;28;20059;-62
2021/06/08 07:23:05;;;;;;;25.13;19.77;;;23.70;94.10;;;;;;5113464;28;20069;-62
2021/06/08 07:25:38;;;;;;;23.48;19.70;;;23.70;94.10;;;;;;5114458;28;20137;-60
2021/06/08 07:28:06;;;;;;;21.60;18.98;;;23.80;94.00;;;;;;5115126;28;20028;-61
2021/06/08 07:30:33;;;;;;;20.65;17.73;;;23.80;94.00;;;;;;5114191;28;20040;-62
2021/06/08 07:33:18;;;;;;;19.13;17.15;;;23.90;94.00;;;;;;5114787;28;20062;-61
2021/06/08 07:36:04;;;;;;;18.40;15.70;;;24.00;93.70;;;;;;5114017;28;20024;-63
2021/06/08 07:38:41;;;;;;;14.70;13.20;;;24.10;93.60;;;;;;5113977;28;20023;-61
2021/06/08 07:41:11;;;;;;;14.38;12.88;;;24.10;93.40;;;;;;5114696;28;20088;-62
2021/06/08 07:43:49;;;;;;;13.65;11.27;;;24.20;93.30;;;;;;5114143;27;20054;-63
2021/06/08 07:46:18;;;;;;;12.13;9.95;;;24.20;93.30;;;;;;5114329;28;20066;-62
2021/06/08 07:48:47;;;;;;;12.68;9.52;;;24.20;93.20;;;;;;5113517;28;20523;-63
2021/06/08 07:51:14;;;;;;;10.07;8.23;;;24.30;93.10;;;;;;5114319;28;20072;-63
2021/06/08 07:53:41;;;;;;;9.02;8.13;;;24.30;93.10;;;;;;5113749;28;20027;-63
2021/06/08 07:56:07;;;;;;;9.52;7.35;;;24.30;93.00;;;;;;5114325;28;20024;-63
2021/06/08 07:58:33;;;;;;;8.75;7.20;;;24.30;93.00;;;;;;5114376;28;20020;-63
2021/06/08 08:00:59;;;;;;;7.95;6.57;;;24.30;92.90;;;;;;5114646;28;20031;-64
2021/06/08 08:03:27;;;;;;;7.70;6.03;;;24.40;92.90;;;;;;5113318;28;20020;-63
2021/06/08 08:05:57;;;;;;;7.65;6.05;;;24.40;92.90;;;;;;5114949;28;20127;-66
2021/06/08 08:08:23;;;;;;;7.88;5.30;;;24.40;92.90;;;;;;5114865;28;20043;-63
2021/06/08 08:10:50;;;;;;;5.70;4.88;;;24.40;92.80;;;;;;5114157;28;20091;-62
2021/06/08 08:13:21;;;;;;;8.40;4.70;;;24.40;92.90;;;;;;5112848;28;20026;-63
2021/06/08 08:15:49;;;;;;;10.73;4.90;;;24.40;92.80;;;;;;5113656;28;20027;-62
2021/06/08 08:18:14;;;;;;;6.85;4.60;;;24.50;92.80;;;;;;5113714;28;20377;-62
2021/06/08 08:20:51;;;;;;;4.47;3.67;;;24.80;92.80;;;;;;5113761;28;20137;-62
2021/06/08 08:23:17;;;;;;;6.55;3.65;;;25.10;92.60;;;;;;5113695;28;20475;-62
2021/06/08 08:25:44;;;;;;;5.90;3.45;;;25.30;92.50;;;;;;5113309;28;20038;-63
2021/06/08 08:28:11;;;;;;;5.75;3.70;;;25.30;92.30;;;;;;5113351;28;20019;-62
2021/06/08 08:30:37;;;;;;;5.50;3.60;;;25.40;92.60;;;;;;5113684;28;20023;-63
2021/06/08 08:33:04;;;;;;;4.88;3.80;;;25.40;92.10;;;;;;5113770;28;20107;-62
2021/06/08 08:35:35;;;;;;;4.60;3.80;;;25.40;92.20;;;;;;5113779;28;20027;-64
2021/06/08 08:38:02;;;;;;;5.53;3.80;;;25.30;92.40;;;;;;5113813;28;20532;-62
2021/06/08 08:40:28;;;;;;;5.93;4.05;;;25.20;92.40;;;;;;5113083;28;20028;-63
2021/06/08 08:42:54;;;;;;;6.05;3.17;;;25.10;92.50;;;;;;5114183;28;20077;-63
2021/06/08 08:45:20;;;;;;;6.13;3.80;;;25.10;92.70;;;;;;5113230;28;20103;-62
2021/06/08 08:47:46;;;;;;;4.40;3.17;;;25.00;92.80;;;;;;5113047;28;20374;-63
2021/06/08 08:50:14;;;;;;;6.43;3.83;;;25.00;92.80;;;;;;5113698;28;20035;-63
2021/06/08 08:52:44;;;;;;;4.53;3.50;;;24.90;92.90;;;;;;5113310;28;20024;-63
2021/06/08 08:55:11;;;;;;;5.78;3.53;;;24.90;92.80;;;;;;5113399;28;20031;-64
2021/06/08 08:57:44;;;;;;;3.42;3.13;;;24.90;92.90;;;;;;5113433;28;20099;-62
2021/06/08 09:00:10;;;;;;;5.50;3.88;;;24.90;92.90;;;;;;5113357;28;20039;-62
2021/06/08 09:02:36;;;;;;;6.00;4.03;;;25.00;92.80;;;;;;5113143;28;20022;-64
2021/06/08 09:05:03;;;;;;;5.18;3.25;;;25.00;92.80;;;;;;5113298;28;20027;-63
2021/06/08 09:07:29;;;;;;;4.25;3.60;;;25.00;92.80;;;;;;5111300;28;20027;-62
2021/06/08 09:09:54;;;;;;;5.53;4.25;;;25.00;92.70;;;;;;5113430;28;20503;-63
2021/06/08 09:12:21;;;;;;;5.80;3.97;;;25.10;92.90;;;;;;5113099;27;20379;-63
2021/06/08 09:14:47;;;;;;;6.85;3.90;;;25.00;92.90;;;;;;5112104;28;20038;-63
2021/06/08 09:17:17;;;;;;;5.43;3.75;;;25.00;92.90;;;;;;5113221;28;20027;-62
2021/06/08 09:19:43;;;;;;;4.65;3.55;;;25.10;93.10;;;;;;5112552;28;20077;-64
2021/06/08 09:22:12;;;;;;;3.85;3.28;;;25.10;93.00;;;;;;5112605;28;20019;-63
2021/06/08 09:24:42;;;;;;;4.38;3.60;;;25.10;92.90;;;;;;5112156;28;20450;-63
2021/06/08 09:27:08;;;;;;;6.97;3.65;;;25.10;92.90;;;;;;5112888;27;20076;-62
2021/06/08 09:29:41;;;;;;;5.07;3.58;;;25.10;92.70;;;;;;5112724;28;20444;-62
2021/06/08 09:32:26;;;;;;;5.82;3.13;;;25.10;92.90;;;;;;5112490;28;20030;-63
2021/06/08 09:34:58;;;;;;;3.55;3.17;;;25.10;92.80;;;;;;5112963;28;20050;-64
2021/06/08 09:37:40;;;;;;;4.05;2.72;;;25.20;92.90;;;;;;5113159;28;20047;-62
2021/06/08 09:40:16;;;;;;;5.18;2.90;;;25.10;92.60;;;;;;5112818;28;20016;-63
2021/06/08 09:42:43;;;;;;;3.90;3.03;;;25.20;92.90;;;;;;5110682;28;20077;-62
2021/06/08 09:45:23;;;;;;;3.85;3.20;;;25.20;93.00;;;;;;5111631;28;20106;-63
2021/06/08 09:48:01;;;;;;;4.53;2.60;;;25.20;92.50;;;;;;5112193;28;20501;-65
2021/06/08 09:50:30;;;;;;;3.33;2.70;;;25.20;92.80;;;;;;5112140;28;20039;-65
2021/06/08 09:53:25;;;;;;;17.65;3.05;;;25.20;93.00;;;;;;5112293;28;20094;-66
2021/06/08 09:55:58;;;;;;;3.65;2.60;;;25.30;93.00;;;;;;5112137;28;20463;-65
2021/06/08 09:58:26;;;;;;;3.58;2.53;;;25.30;92.90;;;;;;5112859;28;20431;-65
2021/06/08 10:01:24;;;;;;;2.88;2.50;;;25.40;92.90;;;;;;5111433;28;20030;-64
2021/06/08 10:03:57;;;;;;;3.53;2.30;;;25.40;92.90;;;;;;5105221;28;20024;-64
2021/06/08 10:06:35;;;;;;;5.95;2.38;;;25.50;93.10;;;;;;5112255;28;20110;-65
2021/06/08 10:09:04;;;;;;;2.97;2.67;;;25.50;93.10;;;;;;5110885;28;20395;-64
2021/06/08 10:11:35;;;;;;;3.22;2.83;;;25.50;93.10;;;;;;5111438;28;20110;-64
2021/06/08 10:14:09;;;;;;;3.75;3.33;;;25.50;93.10;;;;;;5111625;28;20361;-66
2021/06/08 10:16:35;;;;;;;3.45;2.80;;;25.50;92.90;;;;;;5111231;28;20024;-65
2021/06/08 10:19:03;;;;;;;3.42;3.13;;;25.20;92.30;;;;;;5111011;28;20043;-65
2021/06/08 10:21:39;;;;;;;4.43;3.10;;;25.10;92.50;;;;;;5111261;28;20486;-64
2021/06/08 10:24:10;;;;;;;5.45;3.63;;;24.90;92.60;;;;;;5111806;28;20394;-65
2021/06/08 10:26:38;;;;;;;6.15;4.72;;;24.90;92.80;;;;;;5111830;28;20047;-64
2021/06/08 10:29:09;;;;;;;6.28;4.80;;;24.90;92.90;;;;;;5111324;28;20483;-65
2021/06/08 10:31:39;;;;;;;5.97;4.80;;;24.90;92.90;;;;;;5110563;28;20047;-64
2021/06/08 10:34:06;;;;;;;5.13;4.55;;;24.90;92.90;;;;;;5111737;28;20475;-64
2021/06/08 10:36:34;;;;;;;6.40;5.15;;;24.90;92.90;;;;;;5110346;28;20035;-66
2021/06/08 10:39:00;;;;;;;9.02;7.00;;;24.90;92.90;;;;;;5111308;28;20028;-65
2021/06/08 10:41:27;;;;;;;9.90;7.85;;;24.90;92.90;;;;;;5111181;28;20027;-64
2021/06/08 10:43:53;;;;;;;10.35;7.50;;;24.90;93.00;;;;;;5110747;28;20032;-69
2021/06/08 10:46:25;;;;;;;10.52;8.55;;;24.90;92.90;;;;;;5110541;28;20027;-68
2021/06/08 10:48:52;;;;;;;11.00;9.02;;;24.90;93.20;;;;;;5111530;28;20023;-68
2021/06/08 10:51:23;;;;;;;10.57;9.00;;;24.90;92.80;;;;;;5111711;28;20080;-68
2021/06/08 10:53:57;;;;;;;12.10;8.90;;;24.90;92.80;;;;;;5110950;28;20031;-70
2021/06/08 10:56:30;;;;;;;9.10;6.93;;;24.90;92.80;;;;;;5113682;28;20040;-70
2021/06/08 10:58:59;;;;;;;10.65;7.22;;;24.90;92.90;;;;;;5115637;28;20024;-70
2021/06/08 11:01:34;;;;;;;9.40;7.15;;;24.80;92.80;;;;;;5115686;28;20039;-70
2021/06/08 11:04:02;;;;;;;9.23;7.40;;;24.90;92.80;;;;;;5115313;28;20046;-66
2021/06/08 11:06:37;;;;;;;11.82;7.50;;;24.90;92.90;;;;;;5114877;28;20027;-66
2021/06/08 11:09:04;;;;;;;10.45;7.38;;;24.90;92.90;;;;;;5115328;28;20062;-65
2021/06/08 11:11:44;;;;;;;7.57;6.60;;;24.90;92.80;;;;;;5115157;28;20028;-65
2021/06/08 11:14:37;;;;;;;10.10;6.50;;;24.90;92.90;;;;;;5115235;28;20098;-65
2021/06/08 11:17:05;;;;;;;7.78;5.78;;;24.90;92.90;;;;;;5115641;28;20072;-65
2021/06/08 11:19:56;;;;;;;8.05;6.07;;;24.90;92.90;;;;;;5115047;28;20036;-64
2021/06/08 11:22:43;;;;;;;7.28;4.97;;;24.90;92.80;;;;;;5115422;28;20023;-64
2021/06/08 11:25:30;;;;;;;6.90;4.55;;;24.90;92.90;;;;;;5115142;28;20108;-64
2021/06/08 11:28:01;;;;;;;6.45;4.57;;;25.00;92.90;;;;;;5115549;28;20079;-66
2021/06/08 11:30:33;;;;;;;7.50;4.57;;;24.90;92.80;;;;;;5113680;28;20031;-64
2021/06/08 11:33:02;;;;;;;6.30;4.90;;;25.00;92.80;;;;;;5113938;28;20050;-64
2021/06/08 11:35:42;;;;;;;5.93;4.15;;;25.00;92.80;;;;;;5113307;28;20032;-65
2021/06/08 11:38:24;;;;;;;4.55;3.58;;;25.10;93.00;;;;;;5113795;28;20020;-64
2021/06/08 11:40:53;;;;;;;7.50;3.60;;;25.10;92.90;;;;;;5110810;28;20027;-63
2021/06/08 11:43:19;;;;;;;6.18;3.13;;;25.10;93.20;;;;;;5113515;28;20043;-63
2021/06/08 11:45:46;;;;;;;5.03;2.85;;;25.10;92.80;;;;;;5113093;28;20444;-63
2021/06/08 11:48:35;;;;;;;4.05;2.63;;;25.10;92.80;;;;;;5113126;28;20057;-63
2021/06/08 11:51:35;;;;;;;5.13;2.70;;;25.20;92.80;;;;;;5112193;28;20046;-64
2021/06/08 11:54:05;;;;;;;4.55;3.45;;;25.10;92.80;;;;;;5109412;28;20048;-66
2021/06/08 11:56:52;;;;;;;5.88;2.75;;;25.10;92.70;;;;;;5110949;28;20387;-63
2021/06/08 11:59:27;;;;;;;6.47;4.30;;;25.20;92.70;;;;;;5112291;28;20103;-66
2021/06/08 12:02:02;;;;;;;3.95;3.50;;;25.20;92.70;;;;;;5113831;28;20027;-63
2021/06/08 12:04:30;;;;;;;3.80;3.40;;;25.20;92.70;;;;;;5110629;28;20024;-66
2021/06/08 12:07:03;;;;;;;5.80;4.05;;;25.20;92.70;;;;;;5114660;28;20418;-64
2021/06/08 12:09:30;;;;;;;6.28;4.65;;;25.20;92.70;;;;;;5112952;28;20509;-65
2021/06/08 12:11:57;;;;;;;4.30;3.17;;;25.30;92.70;;;;;;5113835;28;20034;-68
2021/06/08 12:14:25;;;;;;;6.00;3.88;;;25.30;92.80;;;;;;5114394;28;20115;-66
2021/06/08 12:16:53;;;;;;;3.80;3.40;;;25.30;92.70;;;;;;5113778;28;20028;-65
2021/06/08 12:19:31;;;;;;;3.72;3.13;;;25.30;92.80;;;;;;5113835;28;20030;-64
2021/06/08 12:22:03;;;;;;;5.65;4.15;;;25.30;92.80;;;;;;5114198;28;20077;-64
2021/06/08 12:24:28;;;;;;;6.18;3.53;;;25.30;92.80;;;;;;5114003;28;20015;-64
2021/06/08 12:27:05;;;;;;;4.22;2.95;;;25.30;92.90;;;;;;5114174;28;20038;-65
2021/06/08 12:29:30;;;;;;;4.05;2.92;;;25.40;92.90;;;;;;5113726;28;20028;-63
2021/06/08 12:31:56;;;;;;;7.10;2.90;;;25.50;92.90;;;;;;5113546;28;20088;-64
2021/06/08 12:34:25;;;;;;;3.38;2.95;;;25.60;92.80;;;;;;5113997;28;20067;-65
2021/06/08 12:36:51;;;;;;;3.33;2.70;;;25.70;92.90;;;;;;5113326;28;20073;-64
2021/06/08 12:39:23;;;;;;;5.22;3.15;;;25.70;92.90;;;;;;5113721;28;20540;-65
2021/06/08 12:41:49;;;;;;;5.15;3.03;;;25.80;93.00;;;;;;5112971;28;20032;-65
2021/06/08 12:44:28;;;;;;;3.30;2.83;;;25.90;93.00;;;;;;5113419;28;20119;-64
2021/06/08 12:46:54;;;;;;;5.05;3.33;;;25.90;93.10;;;;;;5113889;28;20102;-64
2021/06/08 12:49:22;;;;;;;4.05;3.08;;;25.90;93.10;;;;;;5113328;28;20593;-67
2021/06/08 12:51:57;;;;;;;3.33;2.55;;;26.00;93.20;;;;;;5112959;28;20035;-69
2021/06/08 12:54:39;;;;;;;3.65;3.20;;;26.00;93.20;;;;;;5113641;28;20081;-73
2021/06/08 12:57:10;;;;;;;3.53;2.88;;;26.00;93.20;;;;;;5113347;28;20046;-72